createdAt,value
2022-11-15T00:01:26.690Z,85.16
2022-11-15T00:04:08.703Z,84.68
2022-11-15T00:06:56.928Z,84.65
2022-11-15T00:09:48.605Z,83.99
2022-11-15T00:12:42.406Z,83.46
2022-11-15T00:15:29.098Z,83.80
2022-11-15T00:18:14.625Z,83.61
2022-11-15T00:21:02.506Z,83.86
2022-11-15T00:23:47.042Z,82.29
2022-11-15T00:26:24.785Z,81.42
2022-11-15T00:29:02.411Z,81.63
2022-11-15T00:31:58.337Z,81.97
2022-11-15T00:34:40.139Z,81.12
2022-11-15T00:37:39.336Z,80.66
2022-11-15T00:40:26.609Z,80.83
2022-11-15T00:43:28.433Z,80.35
2022-11-15T00:46:16.915Z,79.88
2022-11-15T00:55:09.246Z,77.40
2022-11-15T00:58:06.156Z,76.28
2022-11-15T01:00:52.954Z,76.19
2022-11-15T01:03:27.992Z,76.30
2022-11-15T01:06:21.503Z,74.87
2022-11-15T01:09:02.459Z,74.20
2022-11-15T01:11:50.752Z,73.85
2022-11-15T01:14:32.444Z,73.93
2022-11-15T01:17:22.728Z,74.63
2022-11-15T01:20:06.772Z,73.96
2022-11-15T01:22:53.401Z,74.25
2022-11-15T01:25:37.881Z,74.95
2022-11-15T01:28:33.389Z,74.30
2022-11-15T01:31:20.268Z,72.34
2022-11-15T01:34:15.483Z,71.89
2022-11-15T01:36:53.682Z,71.53
2022-11-15T01:39:34.740Z,71.83
2022-11-15T01:42:25.791Z,71.75
2022-11-15T01:45:28.452Z,72.61
2022-11-15T01:48:21.224Z,72.29
2022-11-15T01:57:00.038Z,71.83
2022-11-15T01:59:40.609Z,69.73
2022-11-15T02:02:32.191Z,68.65
2022-11-15T02:05:41.740Z,67.93
2022-11-15T02:08:25.480Z,67.56
2022-11-15T02:11:16.920Z,68.16
2022-11-15T02:13:57.043Z,67.09
2022-11-15T02:16:56.726Z,65.91
2022-11-15T02:20:25.669Z,65.80
2022-11-15T02:27:24.767Z,65.96
2022-11-15T02:30:59.919Z,64.63
2022-11-15T02:33:53.063Z,65.30
2022-11-15T02:36:47.840Z,63.68
2022-11-15T02:39:39.935Z,63.88
2022-11-15T02:42:40.240Z,63.02
2022-11-15T02:45:31.695Z,63.34
2022-11-15T02:48:15.782Z,62.97
2022-11-15T02:51:07.383Z,63.10
2022-11-15T02:53:49.207Z,64.00
2022-11-15T02:56:28.471Z,61.44
2022-11-15T02:59:40.106Z,61.98
2022-11-15T03:02:39.584Z,63.50
2022-11-15T03:05:38.504Z,62.80
2022-11-15T03:08:23.592Z,63.54
2022-11-15T03:11:14.630Z,63.50
2022-11-15T03:14:05.944Z,64.25
2022-11-15T03:16:53.053Z,62.90
2022-11-15T03:22:56.923Z,64.03
2022-11-15T03:25:51.196Z,62.25
2022-11-15T03:28:33.979Z,63.07
2022-11-15T03:31:33.488Z,63.35
2022-11-15T03:34:29.397Z,64.06
2022-11-15T03:37:36.914Z,63.85
2022-11-15T03:40:44.459Z,63.08
2022-11-15T03:43:31.926Z,64.08
2022-11-15T03:46:29.536Z,63.25
2022-11-15T03:49:26.363Z,64.69
2022-11-15T03:52:10.590Z,62.80
2022-11-15T03:55:00.355Z,61.20
2022-11-15T03:57:37.926Z,63.54
2022-11-15T04:00:37.380Z,62.72
2022-11-15T04:03:27.130Z,61.52
2022-11-15T04:06:05.619Z,60.76
2022-11-15T04:08:52.329Z,59.08
2022-11-15T04:11:31.711Z,59.76
2022-11-15T04:14:08.986Z,60.79
2022-11-15T04:16:54.261Z,60.70
2022-11-15T04:19:44.412Z,61.22
2022-11-15T04:22:43.354Z,61.15
2022-11-15T04:25:24.018Z,60.83
2022-11-15T04:28:10.708Z,61.65
2022-11-15T04:30:51.570Z,61.58
2022-11-15T04:33:46.028Z,62.13
2022-11-15T04:36:54.216Z,62.51
2022-11-15T04:39:31.149Z,63.54
2022-11-15T04:42:09.893Z,63.89
2022-11-15T04:44:51.713Z,64.15
2022-11-15T04:47:42.162Z,63.69
2022-11-15T04:50:27.865Z,63.08
2022-11-15T04:53:08.265Z,63.44
2022-11-15T04:56:07.099Z,63.24
2022-11-15T04:58:55.886Z,63.47
2022-11-15T05:01:44.856Z,63.25
2022-11-15T05:04:35.444Z,64.00
2022-11-15T05:07:33.119Z,64.24
2022-11-15T05:10:24.256Z,64.61
2022-11-15T05:13:09.252Z,64.94
2022-11-15T05:15:51.463Z,66.63
2022-11-15T05:18:28.087Z,68.84
2022-11-15T05:21:23.722Z,70.66
2022-11-15T05:24:33.530Z,72.44
2022-11-15T05:27:20.434Z,74.09
2022-11-15T05:29:58.677Z,74.90
2022-11-15T05:32:51.997Z,76.02
2022-11-15T05:35:39.190Z,77.11
2022-11-15T05:38:49.430Z,78.92
2022-11-15T05:41:53.234Z,79.83
2022-11-15T05:44:42.037Z,80.17
2022-11-15T05:47:42.208Z,80.68
2022-11-15T05:50:30.007Z,81.26
2022-11-15T05:53:27.459Z,81.64
2022-11-15T05:56:12.582Z,82.14
2022-11-15T05:58:59.777Z,82.41
2022-11-15T06:01:44.237Z,82.46
2022-11-15T06:04:23.500Z,82.83
2022-11-15T06:07:00.538Z,83.26
2022-11-15T06:10:05.899Z,83.63
2022-11-15T06:13:07.298Z,83.53
2022-11-15T06:16:17.636Z,83.99
2022-11-15T06:18:56.562Z,84.23
2022-11-15T06:21:34.129Z,84.56
2022-11-15T06:24:14.056Z,85.19
2022-11-15T06:26:58.425Z,85.97
2022-11-15T06:29:35.662Z,86.02
2022-11-15T06:32:30.053Z,86.34
2022-11-15T06:35:13.947Z,87.29
2022-11-15T06:37:54.965Z,87.86
2022-11-15T06:40:33.962Z,88.21
2022-11-15T06:43:13.379Z,88.52
2022-11-15T06:45:52.480Z,89.09
2022-11-15T06:48:44.871Z,90.12
2022-11-15T06:51:32.289Z,90.76
2022-11-15T06:54:19.546Z,91.14
2022-11-15T06:57:03.308Z,91.06
2022-11-15T06:59:41.123Z,91.29
2022-11-15T07:02:28.987Z,91.50
2022-11-15T07:05:12.909Z,91.60
2022-11-15T07:08:00.419Z,90.77
2022-11-15T07:10:46.719Z,91.01
2022-11-15T07:13:42.040Z,91.48
2022-11-15T07:16:28.862Z,91.61
2022-11-15T07:19:13.980Z,91.66
2022-11-15T07:22:17.281Z,92.06
2022-11-15T07:25:21.855Z,92.36
2022-11-15T07:28:09.587Z,92.51
2022-11-15T07:34:09.139Z,93.39
2022-11-15T07:37:03.340Z,93.68
2022-11-15T07:40:28.223Z,94.22
2022-11-15T07:43:21.317Z,94.43
2022-11-15T07:46:09.357Z,94.39
2022-11-15T07:48:45.661Z,94.24
2022-11-15T07:51:26.559Z,94.37
2022-11-15T07:54:04.434Z,94.40
2022-11-15T07:56:49.199Z,94.75
2022-11-15T07:59:50.162Z,94.95
2022-11-15T08:02:49.472Z,95.01
2022-11-15T08:05:30.222Z,95.21
2022-11-15T08:08:12.310Z,95.25
2022-11-15T08:10:53.167Z,95.41
2022-11-15T08:13:39.359Z,95.65
2022-11-15T08:16:30.277Z,95.30
2022-11-15T08:19:12.999Z,95.49
2022-11-15T08:25:05.827Z,95.49
2022-11-15T08:27:53.451Z,95.43
2022-11-15T08:33:44.221Z,95.16
2022-11-15T08:36:22.342Z,95.49
2022-11-15T08:42:07.250Z,94.73
2022-11-15T08:44:56.634Z,94.08
2022-11-15T08:47:36.535Z,94.21
2022-11-15T08:53:17.943Z,93.77
2022-11-15T08:56:09.147Z,94.25
2022-11-15T08:58:51.647Z,94.15
2022-11-15T09:01:35.522Z,94.42
2022-11-15T09:07:27.919Z,93.82
2022-11-15T09:10:27.440Z,93.63
2022-11-15T09:13:08.129Z,93.32
2022-11-15T09:15:54.517Z,92.97
2022-11-15T09:18:38.924Z,92.93
2022-11-15T09:21:16.923Z,92.67
2022-11-15T09:24:18.793Z,92.24
2022-11-15T09:27:07.403Z,91.89
2022-11-15T09:30:00.768Z,91.81
2022-11-15T09:32:55.337Z,92.16
2022-11-15T09:35:43.056Z,92.74
2022-11-15T09:38:28.987Z,92.63
2022-11-15T09:41:38.362Z,92.60
2022-11-15T09:44:47.716Z,93.16
2022-11-15T09:48:26.345Z,93.92
2022-11-15T09:51:34.402Z,93.96
2022-11-15T10:00:48.403Z,94.91
2022-11-15T10:03:42.840Z,94.50
2022-11-15T10:06:30.832Z,94.22
2022-11-15T10:09:30.781Z,94.46
2022-11-15T10:15:10.652Z,94.33
2022-11-15T10:18:14.455Z,93.98
2022-11-15T10:21:22.640Z,93.12
2022-11-15T10:24:40.041Z,93.03
2022-11-15T10:30:29.163Z,93.78
2022-11-15T10:33:09.623Z,93.38
2022-11-15T10:36:26.665Z,92.80
2022-11-15T10:39:29.482Z,92.62
2022-11-15T10:42:32.483Z,93.09
2022-11-15T10:45:34.825Z,93.21
2022-11-15T10:48:46.139Z,93.32
2022-11-15T10:51:49.995Z,93.52
2022-11-15T10:54:59.063Z,93.27
2022-11-15T10:57:56.073Z,92.88
2022-11-15T11:01:07.420Z,92.91
2022-11-15T11:04:01.010Z,92.23
2022-11-15T11:07:07.258Z,92.31
2022-11-15T11:10:44.060Z,92.33
2022-11-15T11:13:53.091Z,92.44
2022-11-15T11:20:08.266Z,93.30
2022-11-15T11:22:48.766Z,93.54
2022-11-15T11:26:06.841Z,93.72
2022-11-15T11:29:10.039Z,93.90
2022-11-15T11:35:18.032Z,94.04
2022-11-15T11:41:24.424Z,92.96
2022-11-15T11:44:34.763Z,93.18
2022-11-15T11:47:27.841Z,92.78
2022-11-15T11:50:15.798Z,93.05
2022-11-15T11:53:07.469Z,93.42
2022-11-15T11:55:49.166Z,94.01
2022-11-15T11:58:47.167Z,94.39
2022-11-15T12:02:07.840Z,94.77
2022-11-15T12:05:25.530Z,95.41
2022-11-15T12:08:06.018Z,96.05
2022-11-15T12:11:00.763Z,96.36
2022-11-15T12:13:55.489Z,96.31
2022-11-15T12:16:59.315Z,96.74
2022-11-15T12:19:55.590Z,95.97
2022-11-15T12:22:55.331Z,94.54
2022-11-15T12:25:45.795Z,92.94
2022-11-15T12:28:35.346Z,91.65
2022-11-15T12:31:38.992Z,91.02
2022-11-15T12:34:53.058Z,89.50
2022-11-15T12:38:11.446Z,88.53
2022-11-15T12:43:59.769Z,87.32
2022-11-15T12:47:23.272Z,87.42
2022-11-15T12:50:04.900Z,87.56
2022-11-15T12:53:39.693Z,87.90
2022-11-15T12:56:44.551Z,88.34
2022-11-15T13:00:15.009Z,89.55
2022-11-15T13:03:16.633Z,90.27
2022-11-15T13:06:20.893Z,91.50
2022-11-15T13:12:02.097Z,89.77
2022-11-15T13:15:04.663Z,89.85
2022-11-15T13:17:59.862Z,90.33
2022-11-15T13:20:47.572Z,89.89
2022-11-15T13:23:40.575Z,89.80
2022-11-15T13:26:25.339Z,89.82
2022-11-15T13:29:13.768Z,89.57
2022-11-15T13:32:11.115Z,90.16
2022-11-15T13:35:07.685Z,90.35
2022-11-15T13:37:56.911Z,90.18
2022-11-15T13:40:45.609Z,90.00
2022-11-15T13:43:42.829Z,90.00
2022-11-15T13:46:30.705Z,89.78
2022-11-15T13:49:13.721Z,89.34
2022-11-15T13:52:06.577Z,89.20
2022-11-15T13:54:53.028Z,88.08
2022-11-15T13:58:02.579Z,87.82
2022-11-15T14:06:48.532Z,86.90
2022-11-15T14:09:50.263Z,87.06
2022-11-15T14:13:02.921Z,87.13
2022-11-15T14:15:47.805Z,87.11
2022-11-15T14:19:11.299Z,87.08
2022-11-15T14:22:19.167Z,86.75
2022-11-15T14:25:30.905Z,87.45
2022-11-15T14:28:41.707Z,87.49
2022-11-15T14:31:28.905Z,88.15
2022-11-15T14:34:13.878Z,88.49
2022-11-15T14:36:57.660Z,89.56
2022-11-15T14:39:45.287Z,90.45
2022-11-15T14:42:26.805Z,90.24
2022-11-15T14:45:04.872Z,89.88
2022-11-15T14:47:42.959Z,89.44
2022-11-15T14:50:28.818Z,87.98
2022-11-15T14:53:10.511Z,87.44
2022-11-15T14:55:54.350Z,86.67
2022-11-15T14:58:42.294Z,86.32
2022-11-15T15:01:33.728Z,85.41
2022-11-15T15:04:29.146Z,85.41
2022-11-15T15:07:15.854Z,87.02
2022-11-15T15:10:37.878Z,87.30
2022-11-15T15:13:10.024Z,88.34
2022-11-15T15:16:02.305Z,88.57
2022-11-15T15:18:52.567Z,88.82
2022-11-15T15:21:49.652Z,89.76
2022-11-15T15:24:38.447Z,90.84
2022-11-15T15:27:22.576Z,92.10
2022-11-15T15:30:08.373Z,93.00
2022-11-15T15:35:47.153Z,94.32
2022-11-15T15:38:33.632Z,94.25
2022-11-15T15:41:10.557Z,94.13
2022-11-15T15:43:53.146Z,94.14
2022-11-15T15:46:35.474Z,94.11
2022-11-15T15:49:24.331Z,93.82
2022-11-15T15:55:20.939Z,94.21
2022-11-15T15:58:20.563Z,94.22
2022-11-15T16:01:06.622Z,94.37
2022-11-15T16:03:42.385Z,94.19
2022-11-15T16:06:49.580Z,93.87
2022-11-15T16:10:05.047Z,93.91
2022-11-15T16:12:54.128Z,93.89
2022-11-15T16:15:37.581Z,93.33
2022-11-15T16:18:24.493Z,92.85
2022-11-15T16:21:02.404Z,92.88
2022-11-15T16:23:39.421Z,93.00
2022-11-15T16:26:28.746Z,93.40
2022-11-15T16:29:06.219Z,93.46
2022-11-15T16:34:41.856Z,93.06
2022-11-15T16:37:40.223Z,93.29
2022-11-15T16:43:54.205Z,92.90
2022-11-15T16:46:46.549Z,92.99
2022-11-15T16:49:28.326Z,92.65
2022-11-15T16:55:01.556Z,90.56
2022-11-15T16:57:46.633Z,89.69
2022-11-15T17:00:40.614Z,89.36
2022-11-15T17:03:27.602Z,89.15
2022-11-15T17:09:43.288Z,90.41
2022-11-15T17:12:20.271Z,91.21
2022-11-15T17:15:00.163Z,92.37
2022-11-15T17:17:43.501Z,93.15
2022-11-15T17:20:30.921Z,93.21
2022-11-15T17:23:33.014Z,93.33
2022-11-15T17:26:31.262Z,92.59
2022-11-15T17:29:12.766Z,92.41
2022-11-15T17:31:53.887Z,91.92
2022-11-15T17:34:38.569Z,90.98
2022-11-15T17:37:33.343Z,90.49
2022-11-15T17:40:29.020Z,90.54
2022-11-15T17:46:18.182Z,91.33
2022-11-15T17:49:03.429Z,91.13
2022-11-15T17:51:51.458Z,91.16
2022-11-15T17:57:35.467Z,91.08
2022-11-15T18:00:18.993Z,91.31
2022-11-15T18:08:56.625Z,92.48
2022-11-15T18:11:42.264Z,92.31
2022-11-15T18:14:28.155Z,92.67
2022-11-15T18:17:21.360Z,92.74
2022-11-15T18:19:58.922Z,92.85
2022-11-15T18:23:12.370Z,92.91
2022-11-15T18:26:06.518Z,91.74
2022-11-15T18:28:49.797Z,91.36
2022-11-15T18:31:47.691Z,91.09
2022-11-15T18:34:34.598Z,91.28
2022-11-15T18:37:12.819Z,91.05
2022-11-15T18:39:58.522Z,90.77
2022-11-15T18:42:41.870Z,90.48
2022-11-15T18:45:24.356Z,89.22
2022-11-15T18:48:18.779Z,89.23
2022-11-15T18:51:05.310Z,89.09
2022-11-15T18:53:57.874Z,89.63
2022-11-15T18:56:40.612Z,90.56
2022-11-15T18:59:32.253Z,91.28
2022-11-15T19:02:26.700Z,91.58
2022-11-15T19:05:05.540Z,91.95
2022-11-15T19:07:58.050Z,92.24
2022-11-15T19:10:45.648Z,92.51
2022-11-15T19:13:25.999Z,92.47
2022-11-15T19:16:22.016Z,92.56
2022-11-15T19:22:06.025Z,92.91
2022-11-15T19:24:43.625Z,93.01
2022-11-15T19:27:52.797Z,92.98
2022-11-15T19:30:42.919Z,92.73
2022-11-15T19:33:30.673Z,92.72
2022-11-15T19:36:15.132Z,92.35
2022-11-15T19:39:02.232Z,92.21
2022-11-15T19:41:45.048Z,92.30
2022-11-15T19:47:47.591Z,92.27
2022-11-15T19:50:41.048Z,92.46
2022-11-15T19:53:33.461Z,92.45
2022-11-15T19:56:15.083Z,92.54
2022-11-15T19:59:00.703Z,92.94
2022-11-15T20:01:54.922Z,92.60
2022-11-15T20:07:36.851Z,92.98
2022-11-15T20:10:18.134Z,92.87
2022-11-15T20:12:57.807Z,92.94
2022-11-15T20:15:39.406Z,92.75
2022-11-15T20:18:22.707Z,92.50
2022-11-15T20:21:28.077Z,92.51
2022-11-15T20:24:07.660Z,92.41
2022-11-15T20:27:09.717Z,92.09
2022-11-15T20:30:03.324Z,91.57
2022-11-15T20:32:43.305Z,91.59
2022-11-15T20:38:23.021Z,91.66
2022-11-15T20:41:10.271Z,91.80
2022-11-15T20:43:51.856Z,91.73
2022-11-15T20:46:29.044Z,91.97
2022-11-15T20:49:05.852Z,92.02
2022-11-15T20:51:46.066Z,91.83
2022-11-15T20:54:48.034Z,91.40
2022-11-15T20:57:23.778Z,91.13
2022-11-15T21:00:17.544Z,91.19
2022-11-15T21:03:05.718Z,90.50
2022-11-15T21:05:43.791Z,89.36
2022-11-15T21:08:31.492Z,88.11
2022-11-15T21:11:32.483Z,87.07
2022-11-15T21:14:26.415Z,86.06
2022-11-15T21:17:46.191Z,85.09
2022-11-15T21:20:50.270Z,83.49
2022-11-15T21:23:38.043Z,82.88
2022-11-15T21:26:41.427Z,82.15
2022-11-15T21:29:17.862Z,81.96
2022-11-15T21:32:06.910Z,82.52
2022-11-15T21:35:04.175Z,83.49
2022-11-15T21:37:58.914Z,83.56
2022-11-15T21:40:49.763Z,84.70
2022-11-15T21:43:41.970Z,84.80
2022-11-15T21:46:21.965Z,85.14
2022-11-15T21:52:05.506Z,85.14
2022-11-15T21:57:52.361Z,84.54
2022-11-15T22:01:01.679Z,84.88
2022-11-15T22:03:51.431Z,85.04
2022-11-15T22:06:35.486Z,85.04
2022-11-15T22:09:18.213Z,85.06
2022-11-15T22:12:29.427Z,84.84
2022-11-15T22:15:11.331Z,85.07
2022-11-15T22:18:09.453Z,85.78
2022-11-15T22:20:51.612Z,86.52
2022-11-15T22:23:39.536Z,87.70
2022-11-15T22:26:29.507Z,87.82
2022-11-15T22:29:12.166Z,88.00
2022-11-15T22:31:59.097Z,88.13
2022-11-15T22:34:57.520Z,88.90
2022-11-15T22:37:43.378Z,89.12
2022-11-15T22:40:25.005Z,89.64
2022-11-15T22:43:20.289Z,89.45
2022-11-15T22:46:15.870Z,89.39
2022-11-15T22:48:55.845Z,89.31
2022-11-15T22:51:49.411Z,89.39
2022-11-15T22:54:28.973Z,89.35
2022-11-15T22:57:04.003Z,89.47
2022-11-15T22:59:42.087Z,89.46
2022-11-15T23:02:20.351Z,89.01
2022-11-15T23:05:00.079Z,89.22
2022-11-15T23:07:54.734Z,88.76
2022-11-15T23:10:56.529Z,88.55
2022-11-15T23:13:51.755Z,88.11
2022-11-15T23:16:38.805Z,87.96
2022-11-15T23:19:25.270Z,87.79
2022-11-15T23:22:22.089Z,87.74
2022-11-15T23:25:36.061Z,87.46
2022-11-15T23:28:41.002Z,87.08
2022-11-15T23:31:34.311Z,86.59
2022-11-15T23:34:22.455Z,87.16
2022-11-15T23:37:13.122Z,87.43
2022-11-15T23:39:54.782Z,87.67
2022-11-15T23:43:01.753Z,87.28
2022-11-15T23:45:52.647Z,87.27
2022-11-15T23:48:30.878Z,87.15
2022-11-15T23:51:26.769Z,87.24
2022-11-15T23:54:04.526Z,86.29
2022-11-15T23:56:42.859Z,85.68
2022-11-15T23:59:36.858Z,85.29
